createdAt,value
2023-05-10T00:00:34.436Z,100
2023-05-10T00:02:59.553Z,100
2023-05-10T00:05:25.634Z,100
2023-05-10T00:07:51.829Z,100
2023-05-10T00:10:17.847Z,100
2023-05-10T00:12:43.944Z,100
2023-05-10T00:15:10.014Z,100
2023-05-10T00:17:36.116Z,100
2023-05-10T00:20:02.203Z,100
2023-05-10T00:22:28.322Z,100
2023-05-10T00:24:54.397Z,100
2023-05-10T00:27:20.495Z,100
2023-05-10T00:29:46.598Z,100
2023-05-10T00:32:12.694Z,100
2023-05-10T00:34:37.799Z,100
2023-05-10T00:37:03.888Z,100
2023-05-10T00:39:29.978Z,100
2023-05-10T00:41:56.077Z,100
2023-05-10T00:44:22.187Z,100
2023-05-10T00:46:48.276Z,100
2023-05-10T00:49:14.366Z,100
2023-05-10T00:51:40.456Z,100
2023-05-10T00:54:06.560Z,100
2023-05-10T00:56:32.661Z,100
2023-05-10T00:58:58.739Z,100
2023-05-10T01:01:24.850Z,100
2023-05-10T01:03:51.000Z,100
2023-05-10T01:16:00.439Z,100
2023-05-10T01:18:25.569Z,100
2023-05-10T01:20:50.667Z,100
2023-05-10T01:23:15.782Z,100
2023-05-10T01:25:41.918Z,100
2023-05-10T01:28:07.959Z,100
2023-05-10T01:30:34.089Z,100
2023-05-10T01:33:00.158Z,100
2023-05-10T01:35:26.269Z,100
2023-05-10T01:37:52.364Z,100
2023-05-10T01:40:18.450Z,100
2023-05-10T01:42:44.558Z,100
2023-05-10T01:45:09.668Z,100
2023-05-10T01:47:34.786Z,100
2023-05-10T01:49:59.903Z,100
2023-05-10T01:52:25.991Z,100
2023-05-10T01:54:52.096Z,100
2023-05-10T01:57:18.170Z,100
2023-05-10T01:59:44.265Z,100
2023-05-10T02:02:10.388Z,100
2023-05-10T02:04:36.463Z,100
2023-05-10T02:07:02.556Z,100
2023-05-10T02:09:28.656Z,100
2023-05-10T02:11:54.752Z,100
2023-05-10T02:14:20.838Z,100
2023-05-10T02:16:46.938Z,100
2023-05-10T02:19:13.044Z,100
2023-05-10T02:21:38.155Z,100
2023-05-10T02:24:04.249Z,100
2023-05-10T02:26:30.334Z,100
2023-05-10T02:28:56.433Z,100
2023-05-10T02:31:22.531Z,100
2023-05-10T02:33:48.611Z,100
2023-05-10T02:36:13.750Z,100
2023-05-10T02:38:38.849Z,100
2023-05-10T02:41:04.963Z,100
2023-05-10T02:43:31.046Z,100
2023-05-10T02:45:57.140Z,100
2023-05-10T02:48:23.219Z,100
2023-05-10T02:50:49.335Z,100
2023-05-10T02:53:15.431Z,100
2023-05-10T02:55:41.529Z,100
2023-05-10T02:58:07.640Z,100
2023-05-10T03:00:33.709Z,100
2023-05-10T03:02:59.797Z,100
2023-05-10T03:05:25.890Z,100
2023-05-10T03:07:52.048Z,100
2023-05-10T03:10:17.180Z,100
2023-05-10T03:12:43.212Z,100
2023-05-10T03:15:09.293Z,100
2023-05-10T03:17:35.395Z,100
2023-05-10T03:20:01.500Z,100
2023-05-10T03:22:27.592Z,100
2023-05-10T03:24:52.711Z,100
2023-05-10T03:27:17.822Z,100
2023-05-10T03:29:43.914Z,100
2023-05-10T03:32:10.019Z,100
2023-05-10T03:34:36.097Z,100
2023-05-10T03:37:02.192Z,100
2023-05-10T03:39:28.308Z,100
2023-05-10T03:41:54.385Z,100
2023-05-10T03:44:20.466Z,100
2023-05-10T03:46:46.596Z,100
2023-05-10T03:49:12.663Z,100
2023-05-10T03:51:38.767Z,100
2023-05-10T03:54:04.859Z,100
2023-05-10T03:56:30.959Z,100
2023-05-10T03:58:56.067Z,100
2023-05-10T04:01:22.216Z,100
2023-05-10T04:03:48.249Z,100
2023-05-10T04:06:14.355Z,100
2023-05-10T04:08:40.475Z,100
2023-05-10T04:11:06.537Z,100
2023-05-10T04:13:31.674Z,100
2023-05-10T04:15:56.777Z,100
2023-05-10T04:18:22.875Z,100
2023-05-10T04:20:48.958Z,100
2023-05-10T04:23:15.067Z,100
2023-05-10T04:25:41.143Z,100
2023-05-10T04:28:07.231Z,100
2023-05-10T04:30:32.373Z,100
2023-05-10T04:32:58.446Z,100
2023-05-10T04:35:24.577Z,100
2023-05-10T04:37:50.744Z,100
2023-05-10T04:40:16.749Z,100
2023-05-10T04:42:42.834Z,100
2023-05-10T04:45:08.933Z,100
2023-05-10T04:47:35.028Z,100
2023-05-10T04:50:01.112Z,100
2023-05-10T04:52:27.204Z,100
2023-05-10T04:54:53.300Z,100
2023-05-10T04:57:19.407Z,100
2023-05-10T04:59:45.504Z,100
2023-05-10T05:02:10.625Z,100
2023-05-10T05:04:35.732Z,100
2023-05-10T05:07:01.926Z,100
2023-05-10T05:09:27.984Z,100
2023-05-10T05:11:54.019Z,100
2023-05-10T05:14:20.100Z,100
2023-05-10T05:16:46.274Z,100
2023-05-10T05:19:12.305Z,100
2023-05-10T05:21:38.405Z,100
2023-05-10T05:24:04.518Z,100
2023-05-10T05:26:30.606Z,100
2023-05-10T05:28:56.702Z,100
2023-05-10T05:31:22.777Z,100
2023-05-10T05:33:48.880Z,100
2023-05-10T05:36:14.078Z,100
2023-05-10T05:38:40.100Z,100
2023-05-10T05:41:06.259Z,100
2023-05-10T05:43:32.464Z,100
2023-05-10T05:45:58.484Z,100
2023-05-10T05:48:24.537Z,100
2023-05-10T05:50:50.621Z,100
2023-05-10T05:53:16.673Z,100
2023-05-10T05:55:42.738Z,100
2023-05-10T05:58:08.838Z,100
2023-05-10T06:00:34.926Z,100
2023-05-10T06:03:01.190Z,100
2023-05-10T06:05:27.267Z,100
2023-05-10T06:07:53.222Z,100
2023-05-10T06:10:19.316Z,100
2023-05-10T06:12:45.414Z,100
2023-05-10T06:15:10.529Z,100
2023-05-10T06:17:36.610Z,100
2023-05-10T06:20:02.733Z,100
2023-05-10T06:22:28.901Z,100
2023-05-10T06:24:54.907Z,100
2023-05-10T06:27:21.048Z,100
2023-05-10T06:29:47.098Z,100
2023-05-10T06:32:13.184Z,100
2023-05-10T06:34:39.301Z,100
2023-05-10T06:37:05.362Z,100
2023-05-10T06:39:31.475Z,100
2023-05-10T06:41:57.559Z,100
2023-05-10T06:44:23.686Z,100
2023-05-10T06:46:49.762Z,100
2023-05-10T06:49:14.956Z,100
2023-05-10T06:51:41.078Z,100
2023-05-10T06:54:07.078Z,100
2023-05-10T06:56:33.310Z,100
2023-05-10T06:58:59.328Z,100
2023-05-10T07:01:25.406Z,100
2023-05-10T07:03:51.516Z,100
2023-05-10T07:06:17.680Z,100
2023-05-10T07:08:43.664Z,100
2023-05-10T07:11:09.751Z,100
2023-05-10T07:13:35.876Z,99.4
2023-05-10T07:16:01.946Z,99.2
2023-05-10T07:18:28.123Z,99.1
2023-05-10T07:20:53.269Z,98.6
2023-05-10T07:23:19.361Z,99.2
2023-05-10T07:25:45.379Z,99.3
2023-05-10T07:28:11.408Z,98.1
2023-05-10T07:30:37.557Z,99.2
2023-05-10T07:33:03.646Z,98.4
2023-05-10T07:35:29.756Z,97.7
2023-05-10T07:37:55.942Z,98
2023-05-10T07:40:21.907Z,98.1
2023-05-10T07:42:48.112Z,98.1
2023-05-10T07:47:40.164Z,96.3
2023-05-10T07:50:06.265Z,94.2
2023-05-10T07:52:31.367Z,94.9
2023-05-10T07:54:57.453Z,95.1
2023-05-10T07:57:23.549Z,94.8
2023-05-10T07:59:49.673Z,94.1
2023-05-10T08:02:15.756Z,94.4
2023-05-10T08:04:41.851Z,93.7
2023-05-10T08:07:07.922Z,94
2023-05-10T08:09:34.013Z,93.8
2023-05-10T08:12:00.199Z,92.5
2023-05-10T08:14:26.225Z,92.8
2023-05-10T08:16:52.424Z,93
2023-05-10T08:19:18.505Z,92.3
2023-05-10T08:21:44.493Z,92.3
2023-05-10T08:24:09.636Z,92.4
2023-05-10T08:26:35.701Z,93.8
2023-05-10T08:29:01.876Z,92.7
2023-05-10T08:31:27.994Z,92
2023-05-10T08:33:54.158Z,92.7
2023-05-10T08:36:20.215Z,91.3
2023-05-10T08:38:46.344Z,91.4
2023-05-10T08:41:12.479Z,90.7
2023-05-10T08:43:38.502Z,90
2023-05-10T08:46:04.620Z,92.3
2023-05-10T08:48:30.552Z,92.2
2023-05-10T08:50:56.680Z,91.9
2023-05-10T08:53:22.793Z,92.6
2023-05-10T08:55:47.846Z,92.9
2023-05-10T08:58:14.078Z,92.2
2023-05-10T09:00:40.050Z,92.4
2023-05-10T09:03:06.257Z,91.6
2023-05-10T09:05:32.237Z,91.6
2023-05-10T09:07:58.320Z,89.8
2023-05-10T09:10:24.471Z,88.8
2023-05-10T09:12:50.540Z,88.4
2023-05-10T09:15:16.659Z,88.3
2023-05-10T09:17:42.716Z,87.6
2023-05-10T09:20:08.779Z,87.2
2023-05-10T09:22:34.889Z,86.5
2023-05-10T09:25:01.050Z,85.8
2023-05-10T09:27:26.089Z,85.3
2023-05-10T09:29:52.182Z,87
2023-05-10T09:32:18.288Z,85.6
2023-05-10T09:34:44.362Z,85.6
2023-05-10T09:37:10.474Z,84
2023-05-10T09:39:36.547Z,83
2023-05-10T09:42:02.666Z,82.8
2023-05-10T09:44:28.750Z,81.6
2023-05-10T09:46:54.835Z,82
2023-05-10T09:49:20.952Z,81
2023-05-10T09:51:47.034Z,80.3
2023-05-10T09:54:13.208Z,78.3
2023-05-10T09:56:39.205Z,78.8
2023-05-10T09:59:04.339Z,78.2
2023-05-10T10:01:30.422Z,78.5
2023-05-10T10:03:56.517Z,77.9
2023-05-10T10:06:22.612Z,78.2
2023-05-10T10:08:48.716Z,78.9
2023-05-10T10:11:14.876Z,77.7
2023-05-10T10:13:41.010Z,78.4
2023-05-10T10:16:06.995Z,77.6
2023-05-10T10:18:33.088Z,77.7
2023-05-10T10:20:59.181Z,77.1
2023-05-10T10:23:25.351Z,75.6
2023-05-10T10:25:51.390Z,75.5
2023-05-10T10:28:17.607Z,75.6
2023-05-10T10:30:42.591Z,75.9
2023-05-10T10:33:08.667Z,77.6
2023-05-10T10:35:34.794Z,77.1
2023-05-10T10:38:00.904Z,77.6
2023-05-10T10:40:26.951Z,78
2023-05-10T10:42:53.071Z,78.9
2023-05-10T10:45:19.324Z,81.3
2023-05-10T10:47:45.379Z,80.1
2023-05-10T10:50:11.533Z,81
2023-05-10T10:52:37.636Z,81.6
2023-05-10T10:55:03.523Z,82
2023-05-10T10:57:29.675Z,78.8
2023-05-10T11:04:48.045Z,78
2023-05-10T11:07:13.027Z,78.2
2023-05-10T11:09:39.149Z,78.7
2023-05-10T11:12:05.223Z,79.1
2023-05-10T11:14:31.444Z,78
2023-05-10T11:16:57.502Z,77.3
2023-05-10T11:19:23.569Z,77.9
2023-05-10T11:21:49.703Z,77.8
2023-05-10T11:24:15.760Z,78.7
2023-05-10T11:26:41.829Z,77.1
2023-05-10T11:29:07.949Z,74.8
2023-05-10T11:31:33.993Z,74.8
2023-05-10T11:34:00.068Z,73.4
2023-05-10T11:36:26.219Z,72.8
2023-05-10T11:38:51.264Z,74.5
2023-05-10T11:41:17.355Z,73.4
2023-05-10T11:43:43.491Z,74.7
2023-05-10T11:46:09.582Z,75
2023-05-10T11:48:35.664Z,75.9
2023-05-10T11:51:01.745Z,75.2
2023-05-10T11:53:27.892Z,74.4
2023-05-10T11:55:53.937Z,75.6
2023-05-10T11:58:20.032Z,75.7
2023-05-10T12:00:46.131Z,76.1
2023-05-10T12:03:12.240Z,76.1
2023-05-10T12:05:38.319Z,77.2
2023-05-10T12:08:04.410Z,78.1
2023-05-10T12:10:29.534Z,78
2023-05-10T12:12:55.634Z,77.6
2023-05-10T12:15:21.716Z,78.2
2023-05-10T12:17:47.846Z,79.2
2023-05-10T12:20:13.897Z,78.9
2023-05-10T12:22:39.996Z,78.7
2023-05-10T12:25:06.091Z,78.2
2023-05-10T12:27:32.218Z,79.5
2023-05-10T12:29:58.287Z,80.6
2023-05-10T12:32:24.387Z,79.7
2023-05-10T12:34:50.473Z,80.5
2023-05-10T12:37:16.578Z,81.1
2023-05-10T12:39:41.704Z,81.5
2023-05-10T12:42:07.788Z,80
2023-05-10T12:44:33.872Z,80.9
2023-05-10T12:47:00.133Z,80.7
2023-05-10T12:49:26.261Z,80.5
2023-05-10T12:51:52.251Z,81.7
2023-05-10T12:54:18.416Z,80.9
2023-05-10T12:56:44.399Z,81.9
2023-05-10T12:59:10.455Z,81
2023-05-10T13:01:36.549Z,82
2023-05-10T13:04:02.720Z,83.5
2023-05-10T13:06:28.798Z,82
2023-05-10T13:08:54.867Z,81.5
2023-05-10T13:11:19.989Z,80.5
2023-05-10T13:13:46.064Z,82.2
2023-05-10T13:16:12.237Z,79.1
2023-05-10T13:18:38.239Z,81.1
2023-05-10T13:21:04.450Z,81.3
2023-05-10T13:23:30.523Z,82.2
2023-05-10T13:25:56.602Z,78.6
2023-05-10T13:28:22.646Z,77.9
2023-05-10T13:30:48.748Z,78.1
2023-05-10T13:33:14.844Z,80.2
2023-05-10T13:35:40.905Z,79.8
2023-05-10T13:38:06.977Z,80.1
2023-05-10T13:40:33.119Z,74.8
2023-05-10T13:42:59.218Z,75.7
2023-05-10T13:45:24.310Z,78
2023-05-10T13:47:50.391Z,76.1
2023-05-10T13:50:16.469Z,75
2023-05-10T13:52:42.612Z,78.3
2023-05-10T13:55:08.662Z,82
2023-05-10T13:57:34.774Z,84.3
2023-05-10T14:00:00.864Z,87.3
2023-05-10T14:02:26.963Z,88.8
2023-05-10T14:04:53.080Z,88.8
2023-05-10T14:07:19.199Z,88.5
2023-05-10T14:09:45.237Z,88.1
2023-05-10T14:12:11.428Z,86.1
2023-05-10T14:14:37.429Z,84.8
2023-05-10T14:17:02.603Z,80
2023-05-10T14:19:28.650Z,78.7
2023-05-10T14:21:54.715Z,81.5
2023-05-10T14:24:20.858Z,79.7
2023-05-10T14:26:46.968Z,80.2
2023-05-10T14:29:13.121Z,79.7
2023-05-10T14:31:39.101Z,80.1
2023-05-10T14:34:05.221Z,78.5
2023-05-10T14:36:31.306Z,77.5
2023-05-10T14:38:57.422Z,79.6
2023-05-10T14:41:23.511Z,81.2
2023-05-10T14:43:49.604Z,81.5
2023-05-10T14:46:15.749Z,81.4
2023-05-10T14:48:40.860Z,82.6
2023-05-10T14:51:06.875Z,83.9
2023-05-10T14:53:32.975Z,84.3
2023-05-10T14:55:59.053Z,84.3
2023-05-10T14:58:25.181Z,84.3
2023-05-10T15:00:51.376Z,83.9
2023-05-10T15:03:17.349Z,81.4
2023-05-10T15:05:43.533Z,83
2023-05-10T15:08:09.654Z,82.6
2023-05-10T15:10:35.674Z,82.8
2023-05-10T15:13:01.730Z,82.8
2023-05-10T15:15:27.905Z,82.8
2023-05-10T15:17:53.970Z,83.4
2023-05-10T15:20:19.024Z,84.3
2023-05-10T15:22:45.226Z,85.2
2023-05-10T15:25:11.247Z,85.8
2023-05-10T15:27:37.337Z,84.4
2023-05-10T15:30:03.412Z,84.8
2023-05-10T15:32:29.627Z,82.1
2023-05-10T15:34:55.691Z,81.9
2023-05-10T15:37:21.689Z,83.6
2023-05-10T15:39:47.772Z,84.5
2023-05-10T15:42:13.964Z,82.3
2023-05-10T15:44:39.992Z,76.8
2023-05-10T15:47:06.079Z,73.3
2023-05-10T15:49:32.186Z,73.2
2023-05-10T15:51:57.322Z,78.3
2023-05-10T15:54:23.388Z,79
2023-05-10T15:56:49.464Z,79.1
2023-05-10T15:59:15.588Z,81.4
2023-05-10T16:01:41.728Z,83
2023-05-10T16:04:07.741Z,77.8
2023-05-10T16:06:33.866Z,74.8
2023-05-10T16:09:00.051Z,78.5
2023-05-10T16:11:26.024Z,80.2
2023-05-10T16:13:52.121Z,82.1
2023-05-10T16:16:18.232Z,80.1
2023-05-10T16:18:44.329Z,77.1
2023-05-10T16:21:10.413Z,77.3
2023-05-10T16:23:35.528Z,79.7
2023-05-10T16:26:01.646Z,72.9
2023-05-10T16:28:27.737Z,74.9
2023-05-10T16:30:53.797Z,72.3
2023-05-10T16:33:19.917Z,72.8
2023-05-10T16:35:45.993Z,73.1
2023-05-10T16:38:12.286Z,76.6
2023-05-10T16:40:38.179Z,72.7
2023-05-10T16:43:04.363Z,76.3
2023-05-10T16:45:30.403Z,75.7
2023-05-10T16:47:56.535Z,75.4
2023-05-10T16:50:22.561Z,72.5
2023-05-10T16:52:48.670Z,76.5
2023-05-10T16:55:13.842Z,76.7
2023-05-10T16:57:39.900Z,79.3
2023-05-10T17:00:05.972Z,82.8
2023-05-10T17:02:32.071Z,85.3
2023-05-10T17:04:58.139Z,86.4
2023-05-10T17:07:24.264Z,86.3
2023-05-10T17:09:50.384Z,85.9
2023-05-10T17:12:16.457Z,87
2023-05-10T17:14:42.593Z,87.7
2023-05-10T17:17:08.668Z,89
2023-05-10T17:19:34.753Z,90.7
2023-05-10T17:22:00.850Z,90.7
2023-05-10T17:26:53.122Z,91.5
2023-05-10T17:29:19.095Z,92.1
2023-05-10T17:31:45.236Z,91.2
2023-05-10T17:34:11.303Z,91.4
2023-05-10T17:36:39.628Z,91.6
2023-05-10T17:39:03.609Z,91.2
2023-05-10T17:41:28.648Z,91.3
2023-05-10T17:43:54.731Z,92.3
2023-05-10T17:46:20.827Z,92.6
2023-05-10T17:48:46.983Z,93
2023-05-10T17:51:12.957Z,93.1
2023-05-10T17:53:39.068Z,93.2
2023-05-10T17:56:05.173Z,93.6
2023-05-10T17:58:31.258Z,94.1
2023-05-10T18:00:57.425Z,94.7
2023-05-10T18:03:23.441Z,94.9
2023-05-10T18:05:49.547Z,94.8
2023-05-10T18:08:15.681Z,94.8
2023-05-10T18:10:41.746Z,95
2023-05-10T18:13:07.933Z,95.2
2023-05-10T18:15:34.033Z,95.5
2023-05-10T18:18:00.165Z,95.6
2023-05-10T18:20:26.282Z,95.5
2023-05-10T18:22:52.431Z,95.5
2023-05-10T18:25:18.589Z,95.6
2023-05-10T18:27:44.670Z,95.5
2023-05-10T18:30:10.758Z,95.9
2023-05-10T18:32:36.785Z,95.5
2023-05-10T18:35:02.775Z,95.8
2023-05-10T18:37:28.942Z,95.7
2023-05-10T18:39:54.973Z,96
2023-05-10T18:42:21.088Z,96.4
2023-05-10T18:44:47.156Z,95.7
2023-05-10T18:47:12.365Z,95.1
2023-05-10T18:49:38.430Z,95.3
2023-05-10T18:52:04.522Z,96
2023-05-10T18:54:30.650Z,96.7
2023-05-10T18:56:56.844Z,96.8
2023-05-10T18:59:22.850Z,97.5
2023-05-10T19:01:48.868Z,97.5
2023-05-10T19:04:14.922Z,98.2
2023-05-10T19:06:41.117Z,98.3
2023-05-10T19:09:07.185Z,98.4
2023-05-10T19:11:33.276Z,98.4
2023-05-10T19:13:59.326Z,98.7
2023-05-10T19:16:25.493Z,98.9
2023-05-10T19:18:51.403Z,98.9
2023-05-10T19:21:16.732Z,99.1
2023-05-10T19:23:42.740Z,99.6
2023-05-10T19:26:09.958Z,100
2023-05-10T19:28:34.932Z,99.3
2023-05-10T19:31:01.013Z,98.9
2023-05-10T19:33:27.094Z,97.7
2023-05-10T19:35:53.290Z,97.6
2023-05-10T19:38:20.157Z,94.9
2023-05-10T19:40:46.902Z,94.5
2023-05-10T19:43:11.505Z,95.6
2023-05-10T19:45:38.662Z,96.5
2023-05-10T19:48:03.697Z,96.8
2023-05-10T19:50:28.780Z,96.2
2023-05-10T19:52:54.906Z,96.1
2023-05-10T19:55:21.148Z,97.3
2023-05-10T19:57:47.209Z,97.5
2023-05-10T20:00:13.250Z,97.6
2023-05-10T20:02:39.329Z,98.3
2023-05-10T20:05:05.347Z,98.5
2023-05-10T20:07:31.457Z,98.1
2023-05-10T20:09:57.620Z,98.6
2023-05-10T20:12:23.685Z,98.6
2023-05-10T20:14:49.775Z,98.6
2023-05-10T20:17:15.882Z,98.8
2023-05-10T20:19:42.057Z,98.8
2023-05-10T20:22:08.076Z,99
2023-05-10T20:24:33.150Z,99.3
2023-05-10T20:26:59.248Z,99.3
2023-05-10T20:29:25.331Z,99.6
2023-05-10T20:31:51.437Z,99.7
2023-05-10T20:34:17.503Z,99.5
2023-05-10T20:36:43.736Z,99.2
2023-05-10T20:39:09.725Z,99.2
2023-05-10T20:41:35.798Z,99.3
2023-05-10T20:44:01.926Z,99.6
2023-05-10T20:46:27.993Z,99.7
2023-05-10T20:48:53.154Z,99.3
2023-05-10T20:51:19.197Z,99.5
2023-05-10T20:53:45.300Z,99.5
2023-05-10T20:56:11.379Z,99.8
2023-05-10T20:58:37.507Z,100
2023-05-10T21:01:03.612Z,100
2023-05-10T21:03:29.673Z,100
2023-05-10T21:05:55.754Z,99.8
2023-05-10T21:08:21.868Z,99.7
2023-05-10T21:10:47.961Z,99.9
2023-05-10T21:13:14.083Z,99.8
2023-05-10T21:15:40.319Z,100
2023-05-10T21:18:06.245Z,100
2023-05-10T21:20:31.366Z,100
2023-05-10T21:22:57.471Z,100
2023-05-10T21:25:23.641Z,100
2023-05-10T21:27:49.664Z,100
2023-05-10T21:30:15.742Z,100
2023-05-10T21:32:41.892Z,100
2023-05-10T21:35:07.924Z,100
2023-05-10T21:37:34.002Z,100
2023-05-10T21:40:00.154Z,100
2023-05-10T21:42:26.200Z,100
2023-05-10T21:44:52.410Z,100
2023-05-10T21:47:18.504Z,100
2023-05-10T21:49:44.535Z,100
2023-05-10T21:52:09.586Z,100
2023-05-10T21:54:35.697Z,100
2023-05-10T21:57:01.816Z,100
2023-05-10T21:59:27.924Z,100
2023-05-10T22:01:53.966Z,100
2023-05-10T22:04:20.083Z,100
2023-05-10T22:06:46.161Z,100
2023-05-10T22:09:12.267Z,98.9
2023-05-10T22:11:38.385Z,97.4
2023-05-10T22:14:04.438Z,97.4
2023-05-10T22:16:30.573Z,95.7
2023-05-10T22:18:56.641Z,95.9
2023-05-10T22:21:22.738Z,95.1
2023-05-10T22:23:47.896Z,95.2
2023-05-10T22:26:13.934Z,95.5
2023-05-10T22:28:40.040Z,95.8
2023-05-10T22:31:06.137Z,95.4
2023-05-10T22:33:32.230Z,95.1
2023-05-10T22:35:58.319Z,95.4
2023-05-10T22:38:24.414Z,94.8
2023-05-10T22:40:50.504Z,94.3
2023-05-10T22:43:16.627Z,94.5
2023-05-10T22:45:42.689Z,94.6
2023-05-10T22:48:08.805Z,94.6
2023-05-10T22:50:34.877Z,95
2023-05-10T22:53:00.989Z,95.9
2023-05-10T22:55:26.094Z,96.3
2023-05-10T22:57:52.180Z,96.8
2023-05-10T23:00:18.276Z,97.5
2023-05-10T23:02:44.367Z,98
2023-05-10T23:05:10.467Z,97.6
2023-05-10T23:07:36.569Z,98.3
2023-05-10T23:10:02.661Z,98.5
2023-05-10T23:12:28.756Z,98.7
2023-05-10T23:14:54.847Z,99
2023-05-10T23:17:20.982Z,99.5
2023-05-10T23:19:47.037Z,99.5
2023-05-10T23:22:13.141Z,99.7
2023-05-10T23:24:39.230Z,99.9
2023-05-10T23:27:04.350Z,100
2023-05-10T23:29:30.467Z,100
2023-05-10T23:31:56.532Z,100
2023-05-10T23:34:22.748Z,100
2023-05-10T23:36:48.718Z,100
2023-05-10T23:39:14.822Z,100
2023-05-10T23:41:40.917Z,100
2023-05-10T23:44:07.013Z,100
2023-05-10T23:46:33.102Z,100
2023-05-10T23:48:59.184Z,100
2023-05-10T23:51:25.290Z,100
2023-05-10T23:53:51.398Z,100
2023-05-10T23:56:17.484Z,100
2023-05-10T23:58:43.580Z,100
